createdAt,value
2019-01-20T17:40:31.448Z,100639.24
2019-01-20T17:43:03.016Z,100640.31
2019-01-20T17:45:35.737Z,100640.31
2019-01-20T17:48:06.454Z,100650.16
2019-01-20T17:50:38.923Z,100651.05
2019-01-20T17:53:10.732Z,100654.86
2019-01-20T17:55:41.407Z,100660.39
2019-01-20T17:58:11.881Z,100655.00
2019-01-20T18:00:45.599Z,100668.53
2019-01-20T18:03:16.661Z,100664.00
2019-01-20T18:05:47.086Z,100662.84
2019-01-20T18:08:17.518Z,100668.17
2019-01-20T18:10:47.853Z,100667.10
2019-01-20T18:13:18.505Z,100676.73
2019-01-20T18:15:54.438Z,100678.61
2019-01-20T18:18:21.328Z,100675.36
2019-01-20T18:20:51.845Z,100675.11
2019-01-20T18:23:22.523Z,100684.73
2019-01-20T18:25:52.858Z,100685.78
2019-01-20T18:28:23.495Z,100693.66
2019-01-20T18:30:53.909Z,100695.15
2019-01-20T18:33:24.510Z,100698.27
2019-01-20T18:35:54.876Z,100701.00
2019-01-20T18:38:25.475Z,100699.58
2019-01-20T18:40:55.855Z,100699.58
2019-01-20T18:43:26.589Z,100706.59
2019-01-20T18:46:01.621Z,100701.48
2019-01-20T18:48:29.438Z,100700.57
2019-01-20T18:50:59.827Z,100700.57
2019-01-20T18:53:30.787Z,100700.31
2019-01-20T18:56:01.575Z,100709.62
2019-01-20T18:58:31.854Z,100716.33
2019-01-20T19:01:03.155Z,100708.66
2019-01-20T19:03:33.470Z,100718.66
2019-01-20T19:06:04.057Z,100721.39
2019-01-20T19:08:34.599Z,100724.63
2019-01-20T19:11:04.901Z,100724.28
2019-01-20T19:13:35.427Z,100724.41
2019-01-20T19:16:09.017Z,100731.94
2019-01-20T19:18:38.372Z,100728.12
2019-01-20T19:21:09.843Z,100731.67
2019-01-20T19:23:40.457Z,100732.26
2019-01-20T19:26:10.835Z,100734.47
2019-01-20T19:28:41.443Z,100731.52
2019-01-20T19:31:11.799Z,100738.60
2019-01-20T19:33:42.403Z,100734.88
2019-01-20T19:36:12.928Z,100743.64
2019-01-20T19:38:43.602Z,100751.95
2019-01-20T19:41:15.055Z,100745.58
2019-01-20T19:43:46.524Z,100738.81
2019-01-20T19:46:16.851Z,100746.20
2019-01-20T19:48:47.786Z,100750.61
2019-01-20T19:51:18.407Z,100752.47
2019-01-20T19:53:48.732Z,100752.19
2019-01-20T19:56:19.350Z,100752.31
2019-01-20T19:58:49.677Z,100752.82
2019-01-20T20:01:20.478Z,100757.22
2019-01-20T20:03:50.800Z,100753.02
2019-01-20T20:06:21.449Z,100759.11
2019-01-20T20:08:51.845Z,100752.73
2019-01-20T20:11:22.375Z,100753.75
2019-01-20T20:13:52.872Z,100753.84
2019-01-20T20:16:24.850Z,100762.25
2019-01-20T20:18:55.506Z,100762.25
2019-01-20T20:21:25.942Z,100764.01
2019-01-20T20:23:56.461Z,100770.14
2019-01-20T20:26:26.905Z,100771.55
2019-01-20T20:28:57.671Z,100775.55
2019-01-20T20:31:28.400Z,100780.86
2019-01-20T20:33:59.157Z,100781.44
2019-01-20T20:36:29.737Z,100784.14
2019-01-20T20:39:00.378Z,100792.42
2019-01-20T20:41:30.826Z,100803.34
2019-01-20T20:44:01.549Z,100804.31
2019-01-20T20:46:32.079Z,100807.02
2019-01-20T20:49:02.747Z,100813.32
2019-01-20T20:51:33.478Z,100813.32
2019-01-20T20:54:06.393Z,100820.30
2019-01-20T20:56:36.738Z,100824.30
2019-01-20T20:59:07.515Z,100826.20
2019-01-20T21:01:38.362Z,100832.33
2019-01-20T21:04:08.961Z,100834.92
2019-01-20T21:06:39.627Z,100838.41
2019-01-20T21:09:11.634Z,100844.09
2019-01-20T21:11:42.039Z,100841.11
2019-01-20T21:14:12.678Z,100844.20
2019-01-20T21:16:43.572Z,100843.01
2019-01-20T21:19:13.924Z,100847.90
2019-01-20T21:21:44.536Z,100845.88
2019-01-20T21:24:14.916Z,100851.16
2019-01-20T21:26:45.774Z,100851.69
2019-01-20T21:29:16.603Z,100862.16
2019-01-20T21:31:47.018Z,100863.95
2019-01-20T21:34:17.322Z,100861.89
2019-01-20T21:36:47.762Z,100867.17
2019-01-20T21:39:18.290Z,100872.92
2019-01-20T21:41:48.853Z,100873.02
2019-01-20T21:44:19.457Z,100876.91
2019-01-20T21:46:50.015Z,100873.52
2019-01-20T21:49:20.665Z,100873.95
2019-01-20T21:51:51.305Z,100874.02
2019-01-20T21:54:21.686Z,100880.92
2019-01-20T21:56:59.666Z,100883.58
2019-01-20T21:59:30.048Z,100880.92
2019-01-20T22:02:00.449Z,100883.11
2019-01-20T22:04:30.823Z,100877.93
2019-01-20T22:07:01.535Z,100882.38
2019-01-20T22:09:31.830Z,100885.00
2019-01-20T22:12:03.010Z,100885.16
2019-01-20T22:14:33.464Z,100885.66
2019-01-20T22:17:03.774Z,100886.15
2019-01-20T22:19:34.459Z,100896.60
2019-01-20T22:22:04.853Z,100890.66
2019-01-20T22:24:35.589Z,100890.66
2019-01-20T22:27:08.061Z,100895.50
2019-01-20T22:29:38.573Z,100892.05
2019-01-20T22:32:08.909Z,100891.70
2019-01-20T22:34:39.481Z,100902.55
2019-01-20T22:37:09.886Z,100899.56
2019-01-20T22:39:40.518Z,100901.36
2019-01-20T22:42:10.825Z,100916.02
2019-01-20T22:44:41.399Z,100903.57
2019-01-20T22:47:11.819Z,100902.77
2019-01-20T22:49:42.506Z,100906.66
2019-01-20T22:52:12.867Z,100909.70
2019-01-20T22:54:43.361Z,100907.61
2019-01-20T22:57:13.788Z,100908.01
2019-01-20T22:59:44.393Z,100905.52
2019-01-20T23:02:14.857Z,100905.52
2019-01-20T23:04:45.403Z,100912.30
2019-01-20T23:07:16.168Z,100914.08
2019-01-20T23:09:46.600Z,100914.08
2019-01-20T23:12:16.828Z,100922.65
2019-01-20T23:14:47.559Z,100914.88
2019-01-20T23:17:17.893Z,100916.58
2019-01-20T23:19:48.397Z,100923.45
2019-01-20T23:22:18.866Z,100923.36
2019-01-20T23:24:49.400Z,100922.90
2019-01-20T23:27:19.730Z,100922.88
2019-01-20T23:29:50.402Z,100928.84
2019-01-20T23:32:20.776Z,100933.94
2019-01-20T23:34:51.483Z,100926.17
2019-01-20T23:37:22.110Z,100921.80
2019-01-20T23:39:52.613Z,100935.08
2019-01-20T23:42:22.896Z,100933.35
2019-01-20T23:44:53.359Z,100934.19
2019-01-20T23:47:23.694Z,100932.00
2019-01-20T23:49:54.225Z,100938.84
2019-01-20T23:52:24.783Z,100932.27
2019-01-20T23:54:55.427Z,100932.27
2019-01-20T23:57:25.777Z,100932.67
2019-01-20T23:59:56.469Z,100939.09
